Time;durP1;ratioP1;P1;durP2;ratioP2;P2;SDS_P1;SDS_P2;PMS_P1;PMS_P2;Temp;Humidity;BMP_temperature;BMP_pressure;BME280_temperature;BME280_humidity;BME280_pressure;Samples;Min_cycle;Max_cycle;Signal;HPM_P1;HPM_P2
2022/12/08 07:36:33;;;;;;;9.23;5.77;;;4.00;99.90;3.40;100619.00;;;;5072639;28;20376;-67
2022/12/08 07:38:59;;;;;;;0.63;0.63;;;4.00;99.90;3.30;100656.00;;;;5068753;28;20222;-67
2022/12/08 07:41:32;;;;;;;3.53;3.23;;;4.10;99.90;3.30;100614.00;;;;5089214;28;20282;-67
2022/12/08 07:44:01;;;;;;;6.13;4.77;;;4.10;99.90;3.50;100592.00;;;;5065843;28;20202;-67
2022/12/08 07:46:39;;;;;;;0.97;0.97;;;4.10;99.90;3.30;100660.00;;;;5062147;28;20316;-67
2022/12/08 07:49:08;;;;;;;1.73;1.63;;;4.10;99.90;3.50;100656.00;;;;5080911;28;20189;-68
2022/12/08 07:51:43;;;;;;;0.30;0.30;;;4.20;99.90;3.20;100663.00;;;;5068384;28;20196;-67
2022/12/08 07:54:21;;;;;;;2.90;2.67;;;4.00;99.90;3.30;100661.00;;;;5073529;28;20192;-67
2022/12/08 07:56:52;;;;;;;0.43;0.43;;;4.00;99.90;3.20;100666.00;;;;5075674;28;20204;-68
2022/12/08 07:59:24;;;;;;;0.30;0.30;;;4.00;99.90;3.40;100660.00;;;;5073608;28;20197;-68
2022/12/08 08:01:50;;;;;;;3.10;2.73;;;4.10;99.90;3.40;100672.00;;;;5082817;28;20649;-67
2022/12/08 08:04:16;;;;;;;2.60;1.90;;;4.10;99.90;3.60;100660.00;;;;5092635;28;20214;-67
2022/12/08 08:06:47;;;;;;;0.83;0.80;;;4.20;99.90;3.60;100665.00;;;;5067999;28;20193;-67
2022/12/08 08:09:19;;;;;;;7.87;5.40;;;4.20;99.90;3.60;100662.00;;;;5064159;28;20185;-68
2022/12/08 08:11:47;;;;;;;1.80;1.70;;;4.20;99.90;3.40;100603.00;;;;5080644;28;20350;-68
2022/12/08 08:14:16;;;;;;;1.17;1.17;;;4.10;99.90;3.60;100660.00;;;;5061724;28;20238;-68
2022/12/08 08:16:46;;;;;;;2.27;1.87;;;4.20;99.90;3.30;100640.00;;;;5070593;28;20198;-67
2022/12/08 08:19:16;;;;;;;2.03;1.87;;;4.20;99.90;3.40;100652.00;;;;5067522;28;20189;-68
2022/12/08 08:21:45;;;;;;;2.70;2.50;;;4.20;99.90;3.70;100650.00;;;;5052930;28;20197;-67
2022/12/08 08:24:14;;;;;;;1.70;1.60;;;4.30;99.90;3.90;100649.00;;;;5071423;28;20664;-68
2022/12/08 08:26:43;;;;;;;2.30;2.20;;;4.40;99.90;4.00;100657.00;;;;5058774;28;20193;-68
2022/12/08 08:29:12;;;;;;;0.30;0.30;;;4.50;99.90;4.30;100650.00;;;;5094689;28;20195;-68
2022/12/08 08:31:38;;;;;;;0.50;0.50;;;4.60;99.90;4.50;100630.00;;;;5090174;28;20185;-68
2022/12/08 08:34:05;;;;;;;0.33;0.33;;;4.80;99.90;4.70;100655.00;;;;5057636;28;20189;-68
2022/12/08 08:36:31;;;;;;;0.93;0.93;;;4.90;99.90;4.60;100644.00;;;;5076701;28;20258;-68
2022/12/08 08:39:00;;;;;;;3.43;3.13;;;5.00;99.90;4.10;100583.00;;;;5079805;28;20197;-68
2022/12/08 08:41:29;;;;;;;0.83;0.83;;;4.80;99.90;4.10;100631.00;;;;5066820;28;20186;-68
2022/12/08 08:43:55;;;;;;;0.80;0.80;;;4.90;99.90;4.20;100579.00;;;;5093173;28;20648;-68
2022/12/08 08:46:20;;;;;;;3.47;3.17;;;4.80;99.90;4.20;100613.00;;;;5070433;28;20192;-68
2022/12/08 08:48:46;;;;;;;0.40;0.40;;;4.80;99.90;4.20;100631.00;;;;5068411;28;20205;-68
2022/12/08 08:51:18;;;;;;;1.83;1.73;;;4.80;99.90;4.50;100609.00;;;;5076727;28;20197;-68
2022/12/08 08:53:44;;;;;;;0.40;0.40;;;4.90;99.90;4.00;100624.00;;;;5056493;28;20210;-68
2022/12/08 08:56:18;;;;;;;1.30;1.23;;;4.70;99.90;3.60;100625.00;;;;5067477;28;20826;-68
2022/12/08 08:58:46;;;;;;;1.27;1.27;;;4.60;99.90;3.50;100623.00;;;;5072904;28;20558;-68
2022/12/08 09:01:25;;;;;;;0.40;0.40;;;4.40;99.90;3.40;100619.00;;;;5068624;28;20193;-68
2022/12/08 09:03:56;;;;;;;1.27;1.17;;;4.30;99.90;3.60;100627.00;;;;5061585;28;20187;-68
2022/12/08 09:06:23;;;;;;;0.37;0.37;;;4.30;99.90;4.40;100625.00;;;;5091260;28;20652;-68
2022/12/08 09:09:11;;;;;;;1.25;1.25;;;4.60;99.90;4.00;100634.00;;;;5067772;28;20430;-68
2022/12/08 09:11:40;;;;;;;3.70;0.63;;;4.60;99.90;3.60;100622.00;;;;5066112;28;20224;-67
2022/12/08 09:14:06;;;;;;;0.20;0.20;;;4.50;99.90;3.70;100621.00;;;;5071789;28;20187;-68
2022/12/08 09:16:42;;;;;;;0.97;0.97;;;4.40;99.90;4.20;100630.00;;;;5058417;28;20585;-68
2022/12/08 09:19:14;;;;;;;1.57;0.90;;;4.60;99.90;3.90;100635.00;;;;5057630;28;20194;-68
2022/12/08 09:21:40;;;;;;;0.30;0.30;;;4.40;99.90;3.80;100635.00;;;;5074432;28;20208;-68
2022/12/08 09:24:09;;;;;;;0.30;0.30;;;4.50;99.90;3.70;100573.00;;;;5075854;28;20196;-68
2022/12/08 09:26:39;;;;;;;0.20;0.20;;;4.50;99.90;4.30;100633.00;;;;5072438;28;20207;-68
2022/12/08 09:29:05;;;;;;;1.27;1.00;;;4.60;99.90;4.20;100635.00;;;;5055804;28;20182;-68
2022/12/08 09:31:31;;;;;;;4.50;2.20;;;4.70;99.90;4.40;100637.00;;;;5071838;28;20204;-68
2022/12/08 09:33:58;;;;;;;6.60;3.10;;;4.70;99.90;3.80;100634.00;;;;5071450;28;20549;-68
2022/12/08 09:36:27;;;;;;;3.37;3.17;;;4.60;99.90;3.70;100583.00;;;;5091858;28;20211;-68
2022/12/08 09:38:53;;;;;;;1.57;1.47;;;4.50;99.90;4.30;100612.00;;;;5088526;28;20197;-68
2022/12/08 09:41:34;;;;;;;2.13;0.60;;;4.70;99.90;3.90;100570.00;;;;5060051;28;20231;-65
2022/12/08 09:44:30;;;;;;;4.67;2.80;;;4.80;99.90;3.60;100627.00;;;;5091667;28;20200;-73
2022/12/08 09:46:59;;;;;;;2.73;2.27;;;4.60;99.90;4.00;100630.00;;;;5088175;28;20273;-63
2022/12/08 09:49:55;;;;;;;0.40;0.40;;;4.70;99.90;4.80;100628.00;;;;5086797;28;20195;-70
2022/12/08 09:52:44;;;;;;;1.83;1.67;;;5.40;99.90;4.30;100588.00;;;;5065368;28;20244;-70
2022/12/08 09:55:31;;;;;;;0.90;0.90;;;5.20;99.90;4.70;100621.00;;;;5061622;28;20191;-69
2022/12/08 09:58:43;;;;;;;1.20;1.20;;;5.30;99.90;4.60;100629.00;;;;5074946;28;20561;-70
2022/12/08 10:01:13;;;;;;;0.50;0.50;;;5.60;99.90;4.50;100622.00;;;;5062826;28;20217;-70
2022/12/08 10:03:40;;;;;;;3.90;3.13;;;5.40;99.90;4.70;100629.00;;;;5071826;28;20283;-70
2022/12/08 10:06:25;;;;;;;3.67;2.93;;;5.50;99.90;4.80;100617.00;;;;5073370;28;20207;-70
2022/12/08 10:09:31;;;;;;;1.30;1.23;;;5.80;99.90;4.50;100622.00;;;;5074193;28;20187;-70
2022/12/08 10:12:15;;;;;;;2.47;2.27;;;5.50;99.90;5.00;100595.00;;;;5088882;28;20218;-69
2022/12/08 10:14:58;;;;;;;10.23;1.23;;;5.60;99.90;5.50;100616.00;;;;5065685;28;20666;-70
2022/12/08 10:17:39;;;;;;;0.70;0.70;;;5.80;99.90;4.80;100614.00;;;;5062689;28;20194;-69
2022/12/08 10:20:19;;;;;;;0.67;0.67;;;5.80;99.90;4.80;100611.00;;;;5067871;28;20569;-69
2022/12/08 10:33:33;;;;;;;4.00;2.47;;;5.70;99.90;5.20;100582.00;;;;5070484;28;20552;-69
2022/12/08 10:36:15;;;;;;;10.57;4.87;;;5.80;99.90;5.30;100587.00;;;;5046656;28;20181;-69
2022/12/08 10:38:47;;;;;;;0.20;0.20;;;6.00;99.90;5.60;100593.00;;;;5064430;28;20178;-69
2022/12/08 10:41:26;;;;;;;4.38;3.15;;;6.10;99.90;4.90;100580.00;;;;5046787;28;20440;-69
2022/12/08 10:44:17;;;;;;;5.07;4.10;;;5.70;99.90;5.10;100581.00;;;;5044575;28;20177;-68
2022/12/08 10:47:11;;;;;;;1.87;1.13;;;5.70;99.90;5.00;100580.00;;;;5045833;28;20252;-70
2022/12/08 10:49:40;;;;;;;0.63;0.63;;;5.70;99.90;4.50;100574.00;;;;5046246;28;20580;-69
2022/12/08 10:52:37;;;;;;;3.83;2.87;;;5.50;99.90;4.40;100541.00;;;;5044407;28;20233;-69
2022/12/08 10:55:19;;;;;;;2.83;2.57;;;5.40;99.90;4.50;100575.00;;;;5045154;28;20175;-69
2022/12/08 10:57:49;;;;;;;0.50;0.50;;;5.30;99.90;4.30;100519.00;;;;5049649;28;20234;-71
2022/12/08 11:00:22;;;;;;;5.27;3.17;;;5.30;99.90;4.30;100570.00;;;;5049580;28;20580;-72
2022/12/08 11:03:01;;;;;;;2.13;1.37;;;5.20;99.90;5.00;100567.00;;;;5048545;28;20190;-71
2022/12/08 11:05:54;;;;;;;3.70;3.40;;;5.60;99.90;4.80;100562.00;;;;5038510;28;20279;-71
2022/12/08 11:08:20;;;;;;;0.43;0.43;;;5.70;99.90;4.50;100566.00;;;;5046121;28;20200;-72
2022/12/08 11:11:04;;;;;;;0.97;0.90;;;5.50;99.90;5.10;100566.00;;;;5047987;28;20190;-72
2022/12/08 11:13:51;;;;;;;0.50;0.50;;;5.60;99.90;4.80;100558.00;;;;5043505;28;20179;-72
2022/12/08 11:16:18;;;;;;;2.17;2.07;;;5.70;99.90;5.00;100515.00;;;;5044775;28;20196;-72
2022/12/08 11:19:25;;;;;;;2.33;1.80;;;5.70;99.90;4.70;100552.00;;;;5044785;28;20182;-72
2022/12/08 11:22:59;;;;;;;0.30;0.30;;;5.60;99.90;4.70;100547.00;;;;5046300;28;20198;-72
2022/12/08 11:25:36;;;;;;;0.40;0.40;;;5.40;99.90;4.80;100551.00;;;;5011101;28;20630;-72
2022/12/08 11:28:06;;;;;;;1.23;1.13;;;5.30;99.90;4.70;100535.00;;;;5030669;28;20183;-74
2022/12/08 11:30:42;;;;;;;4.83;2.70;;;5.40;99.90;4.60;100536.00;;;;5044708;28;20187;-74
2022/12/08 11:33:32;;;;;;;4.20;3.23;;;5.40;99.90;4.90;100538.00;;;;5059563;28;20215;-74
2022/12/08 11:36:39;;;;;;;1.90;1.23;;;5.50;99.90;4.80;100537.00;;;;5038020;28;20207;-72
2022/12/08 11:39:05;;;;;;;0.20;0.20;;;5.60;99.90;4.80;100535.00;;;;5029245;28;20669;-74
2022/12/08 11:41:50;;;;;;;4.37;1.97;;;5.50;99.90;5.40;100544.00;;;;5044392;28;20221;-72
2022/12/08 11:45:23;;;;;;;0.50;0.50;;;5.80;99.90;4.90;100540.00;;;;5028968;28;20710;-71
2022/12/08 11:48:13;;;;;;;2.40;2.20;;;5.70;99.90;4.70;100533.00;;;;4974697;28;20223;-72
2022/12/08 11:51:16;;;;;;;0.97;0.63;;;5.60;99.90;5.10;100525.00;;;;4976871;28;20196;-72
2022/12/08 11:58:15;;;;;;;2.23;2.03;;;6.20;99.90;5.30;100525.00;;;;4993559;28;20599;-74
2022/12/08 12:00:44;;;;;;;3.20;1.23;;;6.10;99.90;5.40;100521.00;;;;4989570;28;20196;-72
2022/12/08 12:03:28;;;;;;;1.77;1.17;;;6.10;99.90;5.60;100531.00;;;;4977241;28;20283;-74
2022/12/08 12:09:24;;;;;;;6.03;2.40;;;6.00;99.90;5.50;100489.00;;;;4989562;28;20198;-74
2022/12/08 12:12:37;;;;;;;4.97;2.33;;;6.10;99.90;5.40;100469.00;;;;4993442;28;20213;-72
2022/12/08 12:15:40;;;;;;;1.47;1.37;;;6.10;99.90;5.30;100516.00;;;;4978519;28;20191;-74
2022/12/08 12:18:44;;;;;;;0.50;0.50;;;6.10;99.90;6.30;100538.00;;;;5006062;28;20195;-72
2022/12/08 12:21:30;;;;;;;0.40;0.40;;;6.40;99.90;6.30;100534.00;;;;5049600;28;20174;-72
2022/12/08 12:24:18;;;;;;;0.40;0.40;;;6.60;99.90;5.50;100525.00;;;;5033041;28;20627;-74
2022/12/08 12:26:59;;;;;;;0.97;0.87;;;6.30;99.90;4.80;100553.00;;;;5017398;28;20191;-74
2022/12/08 12:29:31;;;;;;;0.50;0.50;;;5.60;99.90;4.80;100547.00;;;;5033821;28;20584;-72
2022/12/08 12:32:23;;;;;;;0.30;0.30;;;5.40;99.90;4.20;100556.00;;;;5024393;28;20226;-72
2022/12/08 12:34:56;;;;;;;0.87;0.60;;;5.00;99.90;4.10;100562.00;;;;5015775;28;20537;-72
2022/12/08 12:37:38;;;;;;;0.30;0.30;;;4.80;99.90;4.60;100554.00;;;;5037608;28;20183;-72
2022/12/08 12:40:43;;;;;;;0.30;0.30;;;4.90;99.90;4.40;100547.00;;;;5027396;28;20534;-72
2022/12/08 12:43:09;;;;;;;0.30;0.30;;;4.80;99.90;4.30;100494.00;;;;5024186;28;20281;-72
2022/12/08 12:45:45;;;;;;;0.60;0.60;;;4.80;99.90;3.90;100549.00;;;;5034504;28;20615;-72
2022/12/08 12:48:43;;;;;;;0.30;0.30;;;4.60;99.90;4.00;100536.00;;;;5016827;28;20210;-72
2022/12/08 12:51:46;;;;;;;0.57;0.57;;;4.60;99.90;4.30;100548.00;;;;5030041;28;20179;-72
2022/12/08 12:54:27;;;;;;;0.40;0.40;;;4.70;99.90;4.70;100526.00;;;;5028259;28;20203;-72
2022/12/08 12:57:08;;;;;;;0.40;0.40;;;4.80;99.90;4.80;100537.00;;;;5032807;28;20186;-72
2022/12/08 13:02:38;;;;;;;0.50;0.50;;;5.00;99.90;4.80;100540.00;;;;5029758;28;20293;-72
2022/12/08 13:05:28;;;;;;;0.40;0.40;;;5.00;99.90;4.10;100545.00;;;;5029400;28;20175;-73
2022/12/08 13:08:01;;;;;;;0.40;0.40;;;4.80;99.90;3.60;100487.00;;;;5028245;28;20199;-71
2022/12/08 13:10:36;;;;;;;0.37;0.37;;;4.50;99.90;3.30;100472.00;;;;5029112;28;20237;-73
2022/12/08 13:13:11;;;;;;;0.50;0.50;;;4.00;99.90;3.70;100479.00;;;;5029728;28;20202;-73
2022/12/08 13:16:12;;;;;;;0.40;0.40;;;4.10;99.90;3.70;100532.00;;;;5033967;28;20649;-71
2022/12/08 13:18:47;;;;;;;0.40;0.40;;;4.20;99.90;3.80;100500.00;;;;5012112;28;20246;-71
2022/12/08 13:21:23;;;;;;;0.40;0.40;;;4.30;99.90;3.40;100522.00;;;;5029457;28;20198;-71
2022/12/08 13:24:16;;;;;;;0.40;0.40;;;4.10;99.90;3.40;100528.00;;;;5057132;28;20566;-71
2022/12/08 13:27:09;;;;;;;0.40;0.40;;;4.00;99.90;3.90;100524.00;;;;5029216;28;20183;-70
2022/12/08 13:29:37;;;;;;;2.23;0.60;;;4.10;99.90;4.20;100536.00;;;;5022505;28;20194;-70
2022/12/08 13:32:12;;;;;;;0.40;0.40;;;4.40;99.90;3.60;100534.00;;;;5016112;28;20659;-69
2022/12/08 13:34:51;;;;;;;0.30;0.30;;;4.30;99.90;3.50;100470.00;;;;5033122;28;20194;-70
2022/12/08 13:37:25;;;;;;;0.30;0.30;;;4.20;99.90;4.00;100525.00;;;;5030106;28;20273;-69
2022/12/08 13:39:57;;;;;;;1.50;0.90;;;4.30;99.90;4.50;100516.00;;;;5032292;28;20212;-70
2022/12/08 13:42:55;;;;;;;0.40;0.40;;;4.70;99.90;3.20;100521.00;;;;5032150;28;20192;-69
2022/12/08 13:45:26;;;;;;;1.07;1.07;;;4.20;99.90;3.20;100516.00;;;;5017434;28;20266;-70
2022/12/08 13:49:28;;;;;;;0.90;0.90;;;4.10;99.90;2.90;100513.00;;;;5031237;28;20618;-69
2022/12/08 13:52:16;;;;;;;1.73;1.63;;;3.90;99.90;2.90;100514.00;;;;5027421;28;20214;-69
2022/12/08 13:55:05;;;;;;;0.50;0.50;;;3.80;99.90;3.40;100494.00;;;;5031654;28;20642;-69
2022/12/08 13:58:15;;;;;;;2.00;1.87;;;3.90;99.90;3.30;100504.00;;;;5030687;28;20190;-69
2022/12/08 14:01:16;;;;;;;0.20;0.20;;;4.00;99.90;3.70;100496.00;;;;5031586;28;20198;-69
2022/12/08 14:03:57;;;;;;;1.03;1.03;;;4.00;99.90;2.90;100500.00;;;;5027357;28;20175;-69
2022/12/08 14:07:04;;;;;;;1.03;1.03;;;3.80;99.90;3.20;100432.00;;;;5026289;28;20266;-69
2022/12/08 14:09:38;;;;;;;2.40;2.20;;;3.80;99.90;3.40;100501.00;;;;5028568;28;20187;-69
2022/12/08 14:12:29;;;;;;;1.23;1.23;;;4.00;99.90;3.20;100508.00;;;;5028080;28;20202;-69
2022/12/08 14:15:48;;;;;;;1.17;1.17;;;4.00;99.90;3.30;100494.00;;;;5025627;28;20261;-69
2022/12/08 14:19:01;;;;;;;4.30;2.67;;;4.00;99.90;3.30;100510.00;;;;5026504;28;20229;-69
2022/12/08 14:21:35;;;;;;;2.10;1.80;;;4.00;99.90;3.40;100492.00;;;;5042213;28;20289;-69
2022/12/08 14:24:43;;;;;;;0.50;0.50;;;4.10;99.90;3.40;100470.00;;;;5040605;28;20182;-70
2022/12/08 14:27:25;;;;;;;3.10;1.87;;;4.00;99.90;3.50;100508.00;;;;5029403;28;20228;-69
2022/12/08 14:30:58;;;;;;;1.17;1.07;;;4.10;99.90;3.50;100512.00;;;;5029070;28;20187;-70
2022/12/08 14:34:08;;;;;;;0.50;0.50;;;4.10;99.90;3.60;100511.00;;;;5029157;28;20222;-70
2022/12/08 14:37:41;;;;;;;0.83;0.83;;;4.20;99.90;3.30;100526.00;;;;5028965;28;20660;-70
2022/12/08 14:40:37;;;;;;;0.98;0.98;;;4.10;99.90;3.40;100485.00;;;;5025273;28;20473;-70
2022/12/08 14:43:27;;;;;;;8.17;2.83;;;4.10;99.90;3.30;100513.00;;;;5032432;28;20294;-70
2022/12/08 14:46:22;;;;;;;2.93;2.70;;;4.10;99.90;3.20;100507.00;;;;5025269;28;20199;-70
2022/12/08 14:48:52;;;;;;;4.53;4.10;;;4.10;99.90;3.40;100516.00;;;;5016984;28;20179;-70
2022/12/08 14:52:06;;;;;;;2.40;2.20;;;4.10;99.90;3.50;100498.00;;;;5031083;28;20183;-70
2022/12/08 14:55:39;;;;;;;1.30;1.20;;;4.10;99.90;3.40;100510.00;;;;5013640;28;20559;-70
2022/12/08 14:58:49;;;;;;;5.57;1.33;;;4.20;99.90;3.40;100512.00;;;;5028396;28;20269;-70
2022/12/08 15:01:39;;;;;;;0.33;0.33;;;4.10;99.90;3.40;100502.00;;;;5013969;28;20370;-70
2022/12/08 15:08:05;;;;;;;0.30;0.30;;;4.00;99.90;3.60;100477.00;;;;5034803;28;20541;-70
2022/12/08 15:11:23;;;;;;;2.00;1.87;;;4.10;99.90;3.30;100511.00;;;;5026659;28;20198;-70
2022/12/08 15:14:35;;;;;;;1.30;1.20;;;4.10;99.90;3.20;100504.00;;;;5019495;28;20194;-70
2022/12/08 15:17:47;;;;;;;0.30;0.30;;;4.00;99.90;3.90;100514.00;;;;5025122;28;20214;-72
2022/12/08 15:20:45;;;;;;;0.90;0.90;;;4.10;99.90;3.30;100504.00;;;;5033308;28;20203;-70
2022/12/08 15:23:25;;;;;;;0.50;0.50;;;4.10;99.90;3.50;100512.00;;;;5029765;28;20337;-70
2022/12/08 15:25:56;;;;;;;0.40;0.40;;;4.10;99.90;3.90;100513.00;;;;5032556;28;20265;-70
2022/12/08 15:28:26;;;;;;;0.40;0.40;;;4.30;99.90;3.90;100506.00;;;;5003053;28;20599;-70
2022/12/08 15:30:59;;;;;;;0.40;0.40;;;4.40;99.90;4.20;100495.00;;;;5019547;28;20238;-70
2022/12/08 15:33:26;;;;;;;1.40;1.40;;;4.50;99.90;4.30;100502.00;;;;5015811;28;20594;-70
2022/12/08 15:35:55;;;;;;;1.80;1.60;;;4.70;99.90;4.00;100495.00;;;;5025567;28;20195;-70
2022/12/08 15:38:33;;;;;;;0.43;0.43;;;4.50;99.90;3.60;100489.00;;;;5020881;28;20198;-70
2022/12/08 15:41:08;;;;;;;0.60;0.60;;;4.30;99.90;3.30;100479.00;;;;5034556;28;20174;-70
2022/12/08 15:43:40;;;;;;;0.30;0.30;;;4.20;99.90;3.80;100422.00;;;;5035744;28;20186;-70
2022/12/08 15:46:06;;;;;;;0.30;0.30;;;4.20;99.90;4.20;100478.00;;;;5033568;28;20189;-70
2022/12/08 15:48:32;;;;;;;0.70;0.70;;;4.50;99.90;4.00;100471.00;;;;5047095;28;20203;-70
2022/12/08 15:51:02;;;;;;;0.40;0.40;;;4.50;99.90;4.10;100480.00;;;;5031852;28;20205;-70
2022/12/08 15:53:52;;;;;;;1.17;1.13;;;4.40;99.90;4.10;100477.00;;;;5031345;28;20213;-70
2022/12/08 15:56:20;;;;;;;0.40;0.40;;;4.60;99.90;4.30;100455.00;;;;5022617;28;20249;-70
2022/12/08 15:58:46;;;;;;;0.60;0.60;;;4.50;99.90;3.60;100432.00;;;;5035580;28;20187;-71
2022/12/08 16:01:12;;;;;;;1.37;1.27;;;4.40;99.90;3.40;100463.00;;;;5030865;28;20693;-70
2022/12/08 16:03:38;;;;;;;0.40;0.40;;;4.20;99.90;4.00;100481.00;;;;5037109;28;20184;-70
2022/12/08 16:06:08;;;;;;;0.70;0.70;;;4.20;99.90;3.80;100488.00;;;;5024840;28;20179;-71
2022/12/08 16:08:43;;;;;;;0.73;0.73;;;4.30;99.90;3.80;100428.00;;;;5033128;28;20191;-70
2022/12/08 16:14:16;;;;;;;0.50;0.50;;;4.40;99.90;3.90;100415.00;;;;5033529;28;20561;-70
2022/12/08 16:16:48;;;;;;;3.20;2.90;;;4.40;99.90;3.70;100461.00;;;;5032267;28;20187;-71
2022/12/08 16:19:16;;;;;;;0.50;0.50;;;4.30;99.90;3.30;100476.00;;;;5030654;28;20196;-71
2022/12/08 16:21:42;;;;;;;0.70;0.70;;;4.00;99.90;3.10;100469.00;;;;5027020;28;20195;-70
2022/12/08 16:24:08;;;;;;;2.10;1.93;;;3.90;99.90;3.10;100465.00;;;;5032464;28;20193;-70
2022/12/08 16:26:34;;;;;;;0.73;0.73;;;3.80;99.90;2.80;100473.00;;;;5023030;28;20289;-71
2022/12/08 16:29:05;;;;;;;0.30;0.30;;;3.70;99.90;2.70;100431.00;;;;5014713;28;20226;-70
2022/12/08 16:31:54;;;;;;;0.30;0.30;;;3.60;99.90;3.00;100476.00;;;;5033295;28;20216;-70
2022/12/08 16:34:43;;;;;;;0.50;0.50;;;3.60;99.90;3.00;100476.00;;;;5011916;28;20202;-70
2022/12/08 16:37:24;;;;;;;0.40;0.40;;;3.70;99.90;3.00;100452.00;;;;5033011;28;20185;-70
2022/12/08 16:39:52;;;;;;;0.40;0.40;;;3.70;99.90;3.10;100464.00;;;;5030814;28;20183;-70
2022/12/08 16:45:24;;;;;;;0.50;0.50;;;3.80;99.90;3.40;100433.00;;;;5029920;28;20221;-71
2022/12/08 16:48:21;;;;;;;0.40;0.40;;;3.80;99.90;3.40;100454.00;;;;5023940;28;20186;-71
2022/12/08 16:50:52;;;;;;;0.60;0.60;;;4.00;99.90;3.00;100459.00;;;;5057410;28;20195;-72
2022/12/08 16:53:19;;;;;;;0.50;0.50;;;3.80;99.90;3.00;100454.00;;;;5034386;28;20241;-71
2022/12/08 16:55:51;;;;;;;0.87;0.87;;;3.60;99.90;3.30;100459.00;;;;5030500;28;20227;-72
2022/12/08 16:58:17;;;;;;;0.50;0.50;;;3.60;99.90;3.00;100455.00;;;;5036532;28;20183;-71
2022/12/08 17:01:15;;;;;;;3.60;1.73;;;3.60;99.90;3.00;100456.00;;;;5029072;28;20238;-72
2022/12/08 17:03:42;;;;;;;0.40;0.40;;;3.70;99.90;2.90;100453.00;;;;5019291;28;20190;-72
2022/12/08 17:06:17;;;;;;;1.57;1.47;;;3.60;99.90;3.40;100453.00;;;;5013833;28;20249;-71
2022/12/08 17:08:44;;;;;;;0.60;0.60;;;3.70;99.90;3.80;100454.00;;;;5032217;28;20209;-70
2022/12/08 17:11:25;;;;;;;0.83;0.63;;;3.90;99.90;3.50;100458.00;;;;5033069;28;20186;-70
2022/12/08 17:13:51;;;;;;;4.50;4.20;;;3.90;99.90;3.10;100460.00;;;;5008414;28;20605;-70
2022/12/08 17:16:30;;;;;;;0.60;0.60;;;3.70;99.90;2.70;100379.00;;;;5032745;28;20206;-71
2022/12/08 17:18:57;;;;;;;0.40;0.40;;;3.50;99.90;2.50;100459.00;;;;5033040;28;20236;-72
2022/12/08 17:21:31;;;;;;;0.53;0.53;;;3.40;99.90;2.80;100386.00;;;;5039071;28;20684;-72
2022/12/08 17:23:57;;;;;;;0.50;0.50;;;3.40;99.90;3.40;100386.00;;;;5041353;28;20267;-72
2022/12/08 17:26:25;;;;;;;0.50;0.50;;;3.60;99.90;3.60;100448.00;;;;5040897;28;20832;-72
2022/12/08 17:28:53;;;;;;;0.83;0.83;;;3.70;99.90;3.50;100429.00;;;;5024154;28;20673;-72
2022/12/08 17:31:20;;;;;;;0.50;0.50;;;3.80;99.90;3.60;100448.00;;;;5040989;28;20198;-71
2022/12/08 17:34:09;;;;;;;0.60;0.60;;;3.70;99.90;3.50;100451.00;;;;5040532;28;20191;-71
2022/12/08 17:36:43;;;;;;;3.60;3.40;;;3.70;99.90;2.90;100440.00;;;;5040438;28;20186;-72
2022/12/08 17:39:10;;;;;;;0.50;0.50;;;3.60;99.90;2.60;100444.00;;;;5041070;28;20195;-72
2022/12/08 17:42:03;;;;;;;0.53;0.53;;;3.40;99.90;2.60;100402.00;;;;5039593;28;20188;-73
2022/12/08 17:44:32;;;;;;;0.47;0.47;;;3.20;99.90;2.80;100439.00;;;;5030880;28;20256;-72
2022/12/08 17:46:59;;;;;;;1.07;1.07;;;3.20;99.90;2.70;100461.00;;;;5025298;28;20589;-72
2022/12/08 17:50:09;;;;;;;0.40;0.40;;;3.30;99.90;2.70;100449.00;;;;5041763;28;20198;-71
2022/12/08 17:52:43;;;;;;;0.50;0.50;;;3.20;99.90;3.00;100455.00;;;;5042028;28;20210;-68
2022/12/08 17:55:16;;;;;;;0.90;0.90;;;3.30;99.90;3.40;100446.00;;;;5056845;28;20236;-72
2022/12/08 17:57:51;;;;;;;0.57;0.57;;;3.60;99.90;3.20;100448.00;;;;5040014;28;20186;-71
2022/12/08 18:00:26;;;;;;;1.10;1.00;;;3.70;99.90;3.30;100436.00;;;;5040604;28;20519;-70
2022/12/08 18:02:57;;;;;;;2.07;1.93;;;3.60;99.90;2.50;100450.00;;;;5040055;28;20545;-71
2022/12/08 18:05:29;;;;;;;1.70;1.27;;;3.40;99.90;2.30;100427.00;;;;5040432;28;20187;-70
2022/12/08 18:08:07;;;;;;;2.10;1.67;;;3.20;99.90;2.50;100463.00;;;;5038506;28;20178;-70
2022/12/08 18:10:33;;;;;;;4.13;2.33;;;3.20;99.90;2.40;100461.00;;;;5024097;28;20534;-70
2022/12/08 18:12:59;;;;;;;2.97;2.40;;;3.20;99.90;2.30;100468.00;;;;5041204;28;20213;-71
2022/12/08 18:15:28;;;;;;;0.30;0.30;;;3.20;99.90;2.80;100478.00;;;;5039697;28;20268;-71
2022/12/08 18:17:54;;;;;;;0.57;0.57;;;3.30;99.90;3.40;100447.00;;;;5037491;28;20272;-71
2022/12/08 18:20:21;;;;;;;0.30;0.30;;;3.60;99.90;3.70;100419.00;;;;5030717;28;20761;-71
2022/12/08 18:22:47;;;;;;;7.23;6.23;;;3.80;99.90;4.00;100471.00;;;;5031913;28;20232;-71
2022/12/08 18:25:21;;;;;;;0.67;0.67;;;4.10;99.90;4.00;100469.00;;;;5022604;28;20273;-71
2022/12/08 18:27:56;;;;;;;21.63;20.23;;;4.20;99.90;3.90;100474.00;;;;5033154;28;20194;-71
2022/12/08 18:30:25;;;;;;;4.90;4.47;;;4.20;99.90;3.80;100473.00;;;;5027110;28;20191;-71
2022/12/08 18:32:51;;;;;;;0.67;0.67;;;4.20;99.90;4.00;100477.00;;;;5027584;28;20202;-71
2022/12/08 18:35:21;;;;;;;0.83;0.83;;;4.30;99.90;4.00;100476.00;;;;5018213;28;20262;-71
2022/12/08 18:38:05;;;;;;;2.93;2.67;;;4.40;99.90;4.00;100466.00;;;;5027644;28;20659;-71
2022/12/08 18:40:36;;;;;;;6.80;3.77;;;4.30;99.90;3.20;100469.00;;;;5031767;28;20190;-69
2022/12/08 18:46:50;;;;;;;0.63;0.63;;;3.60;99.90;2.10;100450.00;;;;5014483;28;20278;-70
2022/12/08 18:49:20;;;;;;;8.57;6.23;;;3.10;99.90;2.30;100460.00;;;;5016578;28;20978;-70
2022/12/08 18:51:55;;;;;;;0.87;0.87;;;3.20;99.90;2.40;100411.00;;;;5018233;28;20221;-70
2022/12/08 18:54:21;;;;;;;0.97;0.97;;;3.10;99.90;2.10;100465.00;;;;5004234;28;20190;-69
2022/12/08 18:56:47;;;;;;;5.27;2.30;;;3.10;99.90;2.20;100461.00;;;;5022234;28;20203;-70
2022/12/08 18:59:14;;;;;;;0.30;0.30;;;3.10;99.90;2.40;100452.00;;;;5034338;28;20214;-70
2022/12/08 19:02:11;;;;;;;2.67;2.57;;;3.10;99.90;2.10;100458.00;;;;5043680;28;20265;-70
2022/12/08 19:04:40;;;;;;;1.60;1.50;;;3.00;99.90;2.10;100456.00;;;;5043825;28;20189;-69
2022/12/08 19:07:16;;;;;;;5.97;1.23;;;3.00;99.90;2.00;100455.00;;;;5044572;28;20194;-69
2022/12/08 19:09:42;;;;;;;2.00;1.80;;;3.00;99.90;2.10;100452.00;;;;5026919;28;20208;-69
2022/12/08 19:12:14;;;;;;;0.60;0.60;;;3.00;99.90;2.60;100439.00;;;;5028597;28;20704;-70
2022/12/08 19:14:43;;;;;;;0.37;0.37;;;3.20;99.90;2.90;100392.00;;;;5043323;28;20289;-70
2022/12/08 19:17:24;;;;;;;1.63;1.53;;;3.40;99.90;2.80;100449.00;;;;5043790;28;20225;-70
2022/12/08 19:19:50;;;;;;;0.43;0.43;;;3.30;99.90;2.60;100443.00;;;;5042785;28;20186;-70
2022/12/08 19:22:25;;;;;;;7.07;3.63;;;3.30;99.90;2.30;100432.00;;;;5044958;28;20182;-70
2022/12/08 19:25:00;;;;;;;0.33;0.33;;;3.20;99.90;2.30;100440.00;;;;5042723;28;20236;-70
2022/12/08 19:27:29;;;;;;;1.07;1.07;;;3.10;99.90;2.20;100429.00;;;;5043129;28;20660;-70
2022/12/08 19:29:56;;;;;;;0.87;0.77;;;3.10;99.90;2.10;100434.00;;;;5043394;28;20183;-71
2022/12/08 19:32:22;;;;;;;0.63;0.63;;;2.90;99.90;2.30;100412.00;;;;5043054;28;20217;-71
2022/12/08 19:34:55;;;;;;;0.47;0.47;;;2.90;99.90;2.40;100423.00;;;;5043127;28;20561;-71
2022/12/08 19:37:33;;;;;;;3.23;2.13;;;3.00;99.90;2.30;100397.00;;;;5041754;28;20191;-71
2022/12/08 19:45:47;;;;;;;4.20;3.80;;;2.80;99.90;1.90;100459.00;;;;5043889;28;20197;-70
2022/12/08 19:48:13;;;;;;;7.50;3.33;;;2.70;99.90;1.70;100455.00;;;;5028507;28;20190;-71
2022/12/08 19:50:44;;;;;;;0.50;0.50;;;2.70;99.90;2.00;100464.00;;;;5027344;28;20194;-70
2022/12/08 19:53:51;;;;;;;3.27;2.33;;;2.70;99.90;1.70;100383.00;;;;5042654;28;20289;-70
2022/12/08 19:56:26;;;;;;;2.00;1.90;;;2.60;99.90;1.90;100437.00;;;;5039999;28;20204;-71
2022/12/08 19:59:25;;;;;;;1.50;1.27;;;2.70;99.90;2.40;100447.00;;;;5042858;28;20539;-70
2022/12/08 20:01:54;;;;;;;0.37;0.37;;;2.80;99.90;2.90;100451.00;;;;5039961;28;20253;-71
2022/12/08 20:04:32;;;;;;;5.13;4.63;;;3.10;99.90;2.50;100430.00;;;;5044062;28;20179;-70
2022/12/08 20:06:58;;;;;;;2.00;1.90;;;3.10;99.90;2.10;100440.00;;;;5042894;28;20501;-70
2022/12/08 20:09:31;;;;;;;0.80;0.80;;;2.90;99.90;2.10;100442.00;;;;5043830;28;20269;-71
2022/12/08 20:12:07;;;;;;;2.80;2.60;;;2.80;99.90;2.30;100440.00;;;;5041260;28;20704;-71